createdAt,value
2022-08-23T00:01:33.752Z,5.10
2022-08-23T00:04:05.709Z,5.35
2022-08-23T00:06:35.735Z,5.50
2022-08-23T00:09:04.946Z,5.00
2022-08-23T00:11:37.431Z,5.60
2022-08-23T00:14:10.924Z,5.38
2022-08-23T00:16:41.123Z,5.32
2022-08-23T00:19:13.472Z,5.70
2022-08-23T00:21:44.073Z,6.13
2022-08-23T00:24:14.770Z,5.40
2022-08-23T00:27:01.521Z,5.72
2022-08-23T00:29:42.540Z,5.60
2022-08-23T00:32:15.897Z,5.78
2022-08-23T00:34:44.239Z,5.78
2022-08-23T00:37:14.841Z,5.80
2022-08-23T00:39:43.629Z,5.55
2022-08-23T00:42:37.250Z,6.07
2022-08-23T00:45:24.591Z,5.85
2022-08-23T00:47:54.596Z,5.45
2022-08-23T00:50:28.468Z,6.10
2022-08-23T00:53:12.077Z,5.55
2022-08-23T00:55:43.540Z,6.13
2022-08-23T00:58:14.555Z,5.65
2022-08-23T01:00:42.889Z,5.88
2022-08-23T01:03:14.549Z,6.05
2022-08-23T01:06:02.606Z,6.22
2022-08-23T01:08:35.548Z,5.90
2022-08-23T01:11:10.600Z,5.90
2022-08-23T01:13:46.414Z,7.03
2022-08-23T01:16:22.728Z,6.47
2022-08-23T01:18:52.888Z,6.18
2022-08-23T01:21:32.251Z,6.55
2022-08-23T01:24:07.892Z,6.32
2022-08-23T01:26:36.234Z,6.68
2022-08-23T01:29:08.163Z,6.10
2022-08-23T01:31:37.712Z,6.25
2022-08-23T01:34:10.500Z,6.00
2022-08-23T01:36:39.500Z,5.80
2022-08-23T01:39:09.208Z,6.35
2022-08-23T01:41:38.811Z,6.20
2022-08-23T01:44:09.137Z,6.55
2022-08-23T01:46:38.979Z,6.70
2022-08-23T01:49:08.473Z,6.50
2022-08-23T01:51:37.603Z,6.32
2022-08-23T01:54:08.460Z,6.18
2022-08-23T01:56:39.527Z,5.80
2022-08-23T01:59:14.087Z,6.00
2022-08-23T02:01:47.348Z,5.40
2022-08-23T02:04:16.257Z,6.38
2022-08-23T02:06:44.485Z,5.90
2022-08-23T02:09:19.483Z,6.20
2022-08-23T02:11:48.880Z,6.53
2022-08-23T02:14:22.319Z,6.88
2022-08-23T02:17:03.304Z,6.18
2022-08-23T02:19:34.891Z,7.05
2022-08-23T02:22:06.660Z,5.95
2022-08-23T02:24:42.010Z,6.30
2022-08-23T02:27:11.260Z,6.30
2022-08-23T02:29:46.627Z,6.05
2022-08-23T02:32:19.496Z,5.53
2022-08-23T02:37:37.132Z,6.30
2022-08-23T02:40:08.849Z,6.28
2022-08-23T02:42:37.512Z,6.97
2022-08-23T02:45:08.555Z,6.35
2022-08-23T02:47:42.764Z,6.70
2022-08-23T02:50:26.021Z,7.28
2022-08-23T02:52:56.058Z,6.78
2022-08-23T02:55:26.264Z,7.25
2022-08-23T02:57:55.320Z,6.80
2022-08-23T03:00:24.644Z,7.07
2022-08-23T03:02:53.621Z,7.25
2022-08-23T03:05:22.902Z,6.30
2022-08-23T03:07:51.778Z,6.50
2022-08-23T03:10:20.419Z,6.57
2022-08-23T03:12:56.747Z,7.03
2022-08-23T03:15:25.181Z,7.32
2022-08-23T03:17:53.735Z,7.63
2022-08-23T03:20:22.823Z,7.35
2022-08-23T03:22:55.017Z,7.10
2022-08-23T03:25:26.441Z,7.05
2022-08-23T03:28:15.044Z,7.32
2022-08-23T03:30:46.038Z,7.93
2022-08-23T03:33:15.048Z,7.70
2022-08-23T03:35:45.145Z,7.90
2022-08-23T03:38:15.059Z,7.80
2022-08-23T03:40:45.691Z,7.45
2022-08-23T03:43:15.750Z,7.35
2022-08-23T03:45:44.134Z,7.00
2022-08-23T03:48:12.683Z,7.38
2022-08-23T03:50:41.166Z,7.68
2022-08-23T03:53:10.996Z,7.78
2022-08-23T03:55:43.119Z,8.40
2022-08-23T03:58:17.444Z,7.80
2022-08-23T04:00:45.964Z,7.75
2022-08-23T04:03:14.839Z,7.57
2022-08-23T04:05:59.340Z,6.95
2022-08-23T04:08:33.709Z,7.35
2022-08-23T04:11:04.326Z,6.90
2022-08-23T04:13:35.324Z,7.18
2022-08-23T04:16:05.976Z,7.65
2022-08-23T04:18:36.776Z,6.90
2022-08-23T04:21:13.993Z,6.90
2022-08-23T04:23:43.362Z,6.78
2022-08-23T04:26:12.453Z,6.80
2022-08-23T04:28:44.831Z,6.30
2022-08-23T04:31:15.019Z,6.65
2022-08-23T04:33:45.903Z,7.07
2022-08-23T04:36:23.463Z,7.13
2022-08-23T04:38:53.123Z,7.75
2022-08-23T04:41:39.136Z,7.03
2022-08-23T04:44:08.872Z,6.88
2022-08-23T04:46:37.616Z,7.82
2022-08-23T04:49:05.877Z,7.18
2022-08-23T04:51:34.518Z,7.72
2022-08-23T04:54:03.241Z,7.55
2022-08-23T04:56:44.414Z,7.90
2022-08-23T04:59:21.555Z,7.47
2022-08-23T05:01:50.954Z,8.40
2022-08-23T05:04:19.519Z,8.15
2022-08-23T05:06:48.878Z,8.35
2022-08-23T05:09:20.553Z,7.97
2022-08-23T05:11:49.994Z,8.95
2022-08-23T05:14:20.967Z,8.88
2022-08-23T05:16:51.982Z,8.25
2022-08-23T05:19:20.395Z,8.50
2022-08-23T05:21:49.034Z,8.20
2022-08-23T05:24:18.020Z,8.57
2022-08-23T05:26:48.406Z,8.63
2022-08-23T05:29:17.340Z,8.13
2022-08-23T05:31:51.211Z,8.32
2022-08-23T05:34:22.953Z,8.48
2022-08-23T05:36:57.337Z,8.30
2022-08-23T05:39:36.111Z,8.10
2022-08-23T05:42:10.719Z,9.15
2022-08-23T05:44:39.414Z,8.85
2022-08-23T05:47:15.905Z,9.63
2022-08-23T05:50:19.751Z,9.23
2022-08-23T05:52:51.117Z,9.45
2022-08-23T05:55:22.160Z,9.30
2022-08-23T05:58:17.013Z,10.50
2022-08-23T06:00:46.638Z,9.93
2022-08-23T06:03:17.181Z,9.85
2022-08-23T06:05:48.085Z,9.20
2022-08-23T06:08:17.194Z,10.00
2022-08-23T06:10:45.645Z,9.32
2022-08-23T06:13:27.849Z,9.80
2022-08-23T06:15:57.910Z,9.45
2022-08-23T06:18:29.246Z,9.65
2022-08-23T06:21:11.393Z,8.60
2022-08-23T06:23:49.510Z,8.90
2022-08-23T06:26:22.517Z,8.27
2022-08-23T06:28:54.340Z,9.00
2022-08-23T06:31:39.798Z,9.02
2022-08-23T06:34:18.520Z,9.52
2022-08-23T06:37:09.656Z,7.57
2022-08-23T06:39:58.605Z,7.95
2022-08-23T06:42:44.821Z,7.63
2022-08-23T06:45:14.336Z,7.65
2022-08-23T06:47:49.490Z,7.55
2022-08-23T06:50:19.408Z,7.47
2022-08-23T06:53:07.025Z,6.60
2022-08-23T06:55:47.998Z,6.70
2022-08-23T06:58:20.068Z,6.75
2022-08-23T07:01:48.951Z,5.80
2022-08-23T07:04:28.902Z,6.97
2022-08-23T07:07:17.504Z,6.50
2022-08-23T07:09:45.893Z,7.10
2022-08-23T07:12:14.517Z,7.60
2022-08-23T07:14:45.080Z,6.40
2022-08-23T07:17:14.875Z,7.30
2022-08-23T07:19:44.982Z,6.60
2022-08-23T07:22:15.566Z,6.50
2022-08-23T07:24:45.934Z,6.30
2022-08-23T07:27:15.567Z,6.25
2022-08-23T07:30:00.778Z,5.47
2022-08-23T07:32:29.672Z,6.20
2022-08-23T07:34:59.670Z,6.18
2022-08-23T07:37:31.811Z,6.15
2022-08-23T07:40:03.505Z,6.05
2022-08-23T07:42:34.118Z,6.75
2022-08-23T07:45:02.802Z,5.05
2022-08-23T07:47:33.937Z,5.88
2022-08-23T07:50:02.375Z,5.78
2022-08-23T07:52:33.620Z,5.45
2022-08-23T07:55:03.838Z,5.07
2022-08-23T07:57:58.250Z,4.32
2022-08-23T08:00:37.432Z,5.65
2022-08-23T08:03:28.776Z,4.97
2022-08-23T08:06:12.781Z,5.82
2022-08-23T08:08:43.837Z,5.45
2022-08-23T08:11:16.484Z,4.78
2022-08-23T08:13:48.227Z,5.03
2022-08-23T08:16:24.709Z,4.30
2022-08-23T08:18:55.561Z,4.55
2022-08-23T08:21:45.713Z,4.38
2022-08-23T08:24:40.697Z,4.80
2022-08-23T08:27:14.617Z,4.50
2022-08-23T08:29:45.146Z,3.97
2022-08-23T08:32:14.293Z,3.97
2022-08-23T08:34:43.802Z,3.72
2022-08-23T08:37:13.308Z,3.47
2022-08-23T08:39:46.134Z,3.92
2022-08-23T08:42:44.662Z,3.28
2022-08-23T08:45:19.965Z,2.83
2022-08-23T08:47:54.560Z,3.10
2022-08-23T08:50:33.909Z,2.75
2022-08-23T08:53:10.899Z,3.00
2022-08-23T08:56:03.852Z,2.70
2022-08-23T08:58:50.111Z,3.00
2022-08-23T09:01:22.074Z,2.63
2022-08-23T09:03:52.447Z,2.30
2022-08-23T09:06:31.605Z,2.65
2022-08-23T09:09:19.726Z,2.65
2022-08-23T09:12:02.167Z,2.90
2022-08-23T09:15:07.017Z,2.95
2022-08-23T09:17:45.153Z,2.63
2022-08-23T09:20:18.723Z,2.80
2022-08-23T09:22:58.215Z,2.25
2022-08-23T09:25:31.670Z,2.25
2022-08-23T09:28:09.800Z,2.20
2022-08-23T09:30:50.671Z,2.13
2022-08-23T09:33:26.223Z,1.85
2022-08-23T09:36:18.996Z,2.25
2022-08-23T09:38:58.012Z,2.22
2022-08-23T09:41:36.528Z,2.13
2022-08-23T09:44:09.439Z,2.28
2022-08-23T09:46:42.010Z,1.70
2022-08-23T09:49:30.199Z,2.10
2022-08-23T09:52:26.822Z,2.13
2022-08-23T09:55:05.466Z,2.10
2022-08-23T09:57:40.143Z,2.00
2022-08-23T10:00:26.210Z,2.08
2022-08-23T10:03:16.555Z,2.30
2022-08-23T10:05:54.575Z,2.20
2022-08-23T10:08:28.408Z,2.20
2022-08-23T10:11:13.396Z,7.88
2022-08-23T10:13:44.703Z,2.35
2022-08-23T10:16:29.088Z,1.80
2022-08-23T10:19:20.931Z,1.98
2022-08-23T10:22:02.142Z,2.05
2022-08-23T10:24:46.049Z,1.77
2022-08-23T10:27:50.890Z,2.05
2022-08-23T10:30:28.740Z,1.80
2022-08-23T10:33:09.736Z,1.60
2022-08-23T10:36:04.949Z,1.80
2022-08-23T10:38:47.113Z,1.55
2022-08-23T10:41:46.784Z,1.40
2022-08-23T10:44:29.230Z,1.60
2022-08-23T10:47:16.926Z,1.80
2022-08-23T10:49:50.723Z,1.80
2022-08-23T10:52:28.100Z,1.80
2022-08-23T10:55:06.490Z,1.60
2022-08-23T10:57:42.411Z,1.55
2022-08-23T11:00:18.068Z,1.55
2022-08-23T11:02:59.457Z,1.60
2022-08-23T11:05:38.717Z,1.60
2022-08-23T11:08:36.512Z,1.60
2022-08-23T11:11:43.116Z,1.48
2022-08-23T11:14:27.009Z,1.70
2022-08-23T11:17:03.365Z,1.40
2022-08-23T11:19:52.522Z,1.42
2022-08-23T11:22:25.194Z,1.50
2022-08-23T11:25:03.573Z,1.80
2022-08-23T11:27:41.608Z,1.58
2022-08-23T11:30:50.791Z,1.63
2022-08-23T11:33:35.587Z,1.70
2022-08-23T11:36:21.836Z,1.50
2022-08-23T11:39:13.242Z,1.52
2022-08-23T11:42:07.198Z,1.55
2022-08-23T11:44:48.157Z,1.77
2022-08-23T11:47:31.154Z,1.70
2022-08-23T11:50:27.984Z,1.67
2022-08-23T11:53:25.866Z,1.50
2022-08-23T11:56:35.932Z,1.50
2022-08-23T11:59:38.458Z,1.67
2022-08-23T12:02:37.126Z,1.77
2022-08-23T12:05:21.867Z,2.00
2022-08-23T12:08:17.384Z,1.50
2022-08-23T12:11:09.208Z,1.60
2022-08-23T12:14:01.486Z,1.52
2022-08-23T12:16:49.613Z,1.60
2022-08-23T12:19:35.818Z,1.40
2022-08-23T12:22:14.729Z,1.50
2022-08-23T12:24:52.373Z,1.42
2022-08-23T12:27:33.817Z,1.40
2022-08-23T12:30:10.880Z,1.35
2022-08-23T12:32:54.829Z,1.40
2022-08-23T12:35:41.208Z,1.38
2022-08-23T12:38:16.718Z,1.65
2022-08-23T12:40:50.972Z,1.30
2022-08-23T12:43:27.816Z,1.90
2022-08-23T12:46:00.902Z,1.30
2022-08-23T12:48:46.115Z,1.15
2022-08-23T12:51:14.423Z,1.40
2022-08-23T12:53:46.153Z,1.25
2022-08-23T12:56:22.752Z,1.40
2022-08-23T12:59:05.585Z,1.38
2022-08-23T13:01:38.447Z,1.48
2022-08-23T13:04:13.482Z,1.60
2022-08-23T13:06:47.926Z,1.50
2022-08-23T13:09:23.642Z,1.55
2022-08-23T13:11:53.153Z,1.50
2022-08-23T13:14:31.048Z,1.20
2022-08-23T13:17:13.174Z,1.40
2022-08-23T13:19:47.210Z,1.20
2022-08-23T13:22:25.021Z,1.40
2022-08-23T13:25:28.761Z,1.20
2022-08-23T13:28:03.711Z,1.10
2022-08-23T13:30:36.313Z,1.30
2022-08-23T13:33:25.474Z,0.98
2022-08-23T13:36:13.924Z,1.00
2022-08-23T13:38:45.117Z,0.90
2022-08-23T13:41:31.825Z,1.13
2022-08-23T13:44:09.580Z,1.30
2022-08-23T13:46:48.331Z,1.00
2022-08-23T13:49:21.369Z,1.00
2022-08-23T13:54:43.182Z,1.10
2022-08-23T13:57:16.349Z,1.20
2022-08-23T13:59:51.881Z,0.90
2022-08-23T14:02:24.339Z,1.00
2022-08-23T14:04:52.926Z,1.00
2022-08-23T14:07:22.168Z,1.00
2022-08-23T14:09:54.989Z,0.90
2022-08-23T14:12:28.625Z,0.95
2022-08-23T14:14:57.746Z,0.90
2022-08-23T14:17:26.647Z,1.05
2022-08-23T14:20:32.011Z,0.90
2022-08-23T14:22:44.141Z,0.90
2022-08-23T14:25:15.258Z,0.80
2022-08-23T14:27:46.834Z,0.82
2022-08-23T14:30:29.304Z,0.90
2022-08-23T14:32:59.054Z,0.95
2022-08-23T14:35:28.020Z,0.90
2022-08-23T14:38:05.287Z,0.80
2022-08-23T14:40:37.255Z,1.00
2022-08-23T14:43:06.064Z,0.80
2022-08-23T14:45:34.647Z,0.90
2022-08-23T14:48:03.395Z,0.90
2022-08-23T14:50:31.778Z,1.30
2022-08-23T14:53:03.497Z,0.80
2022-08-23T14:55:32.016Z,0.80
2022-08-23T14:58:01.622Z,0.93
2022-08-23T15:00:30.041Z,1.00
2022-08-23T15:02:58.906Z,0.90
2022-08-23T15:05:27.375Z,0.80
2022-08-23T15:07:55.657Z,0.80
2022-08-23T15:13:21.664Z,1.05
2022-08-23T15:15:55.721Z,0.90
2022-08-23T15:18:24.352Z,0.90
2022-08-23T15:20:53.086Z,0.75
2022-08-23T15:23:22.105Z,0.77
2022-08-23T15:25:51.087Z,0.60
2022-08-23T15:28:23.867Z,0.82
2022-08-23T15:30:52.907Z,0.70
2022-08-23T15:33:25.337Z,0.70
2022-08-23T15:35:55.971Z,0.75
2022-08-23T15:38:26.786Z,0.80
2022-08-23T15:40:56.890Z,0.73
2022-08-23T15:43:34.400Z,0.82
2022-08-23T15:46:06.779Z,0.70
2022-08-23T15:48:38.513Z,0.70
2022-08-23T15:51:07.696Z,0.70
2022-08-23T15:53:39.230Z,1.05
2022-08-23T15:56:13.980Z,1.02
2022-08-23T15:58:44.016Z,0.90
2022-08-23T16:01:13.130Z,0.65
2022-08-23T16:03:43.713Z,0.70
2022-08-23T16:06:14.501Z,0.70
2022-08-23T16:08:48.618Z,0.60
2022-08-23T16:11:16.917Z,0.80
2022-08-23T16:13:50.124Z,0.70
2022-08-23T16:16:24.637Z,0.75
2022-08-23T16:18:55.073Z,0.90
2022-08-23T16:21:26.317Z,0.70
2022-08-23T16:23:55.951Z,0.70
2022-08-23T16:26:34.917Z,0.88
2022-08-23T16:29:10.878Z,0.70
2022-08-23T16:31:39.913Z,0.90
2022-08-23T16:34:10.311Z,0.80
2022-08-23T16:36:41.075Z,0.73
2022-08-23T16:39:10.654Z,0.73
2022-08-23T16:41:39.360Z,0.63
2022-08-23T16:44:09.799Z,0.80
2022-08-23T16:46:41.172Z,0.90
2022-08-23T16:49:10.115Z,0.80
2022-08-23T16:51:38.668Z,1.77
2022-08-23T16:54:08.413Z,1.58
2022-08-23T16:56:39.086Z,1.00
2022-08-23T16:59:13.304Z,1.00
2022-08-23T17:01:49.442Z,1.13
2022-08-23T17:04:18.906Z,0.80
2022-08-23T17:06:47.841Z,1.20
2022-08-23T17:09:16.447Z,2.17
2022-08-23T17:11:45.762Z,1.63
2022-08-23T17:14:16.141Z,5.20
2022-08-23T17:16:45.088Z,1.80
2022-08-23T17:19:15.347Z,0.82
2022-08-23T17:21:45.088Z,0.80
2022-08-23T17:24:13.442Z,0.80
2022-08-23T17:26:41.739Z,0.70
2022-08-23T17:29:10.412Z,0.95
2022-08-23T17:31:40.351Z,0.95
2022-08-23T17:34:09.046Z,1.10
2022-08-23T17:36:41.833Z,1.80
2022-08-23T17:39:19.854Z,1.10
2022-08-23T17:41:49.050Z,6.60
2022-08-23T17:44:20.291Z,2.40
2022-08-23T17:46:51.068Z,1.55
2022-08-23T17:49:21.190Z,0.88
2022-08-23T17:51:49.862Z,0.90
2022-08-23T17:54:18.506Z,0.90
2022-08-23T17:56:50.031Z,1.00
2022-08-23T17:59:19.804Z,1.00
2022-08-23T18:01:49.742Z,1.00
2022-08-23T18:04:18.120Z,0.90
2022-08-23T18:06:47.434Z,1.00
2022-08-23T18:09:16.691Z,1.17
2022-08-23T18:11:46.471Z,1.00
2022-08-23T18:14:14.805Z,1.08
2022-08-23T18:16:44.099Z,1.10
2022-08-23T18:19:15.559Z,1.08
2022-08-23T18:21:45.439Z,1.27
2022-08-23T18:24:14.740Z,1.40
2022-08-23T18:27:01.656Z,1.40
2022-08-23T18:29:34.987Z,1.17
2022-08-23T18:32:07.005Z,1.00
2022-08-23T18:34:37.880Z,1.00
2022-08-23T18:37:07.256Z,1.10
2022-08-23T18:39:35.890Z,0.98
2022-08-23T18:42:09.147Z,1.20
2022-08-23T18:44:37.742Z,1.25
2022-08-23T18:47:06.389Z,1.00
2022-08-23T18:49:37.340Z,1.08
2022-08-23T18:52:07.119Z,1.00
2022-08-23T18:54:37.489Z,1.15
2022-08-23T18:57:06.265Z,1.05
2022-08-23T18:59:34.593Z,1.10
2022-08-23T19:02:02.941Z,1.15
2022-08-23T19:04:31.512Z,1.10
2022-08-23T19:07:01.201Z,1.30
2022-08-23T19:09:30.175Z,1.30
2022-08-23T19:12:00.301Z,1.20
2022-08-23T19:14:29.529Z,1.10
2022-08-23T19:16:58.218Z,1.30
2022-08-23T19:19:26.970Z,1.17
2022-08-23T19:21:55.321Z,1.08
2022-08-23T19:24:25.494Z,1.10
2022-08-23T19:26:54.445Z,1.20
2022-08-23T19:29:23.118Z,1.35
2022-08-23T19:31:51.780Z,1.30
2022-08-23T19:34:22.285Z,1.30
2022-08-23T19:37:00.774Z,1.40
2022-08-23T19:39:32.205Z,1.73
2022-08-23T19:42:00.606Z,1.50
2022-08-23T19:44:31.100Z,1.50
2022-08-23T19:46:59.534Z,1.33
2022-08-23T19:49:28.235Z,1.50
2022-08-23T19:51:56.641Z,1.40
2022-08-23T19:54:25.956Z,1.60
2022-08-23T19:56:59.481Z,1.60
2022-08-23T19:59:31.941Z,1.48
2022-08-23T20:02:00.919Z,1.42
2022-08-23T20:04:32.470Z,1.60
2022-08-23T20:07:02.545Z,2.33
2022-08-23T20:09:33.370Z,1.67
2022-08-23T20:12:03.700Z,1.88
2022-08-23T20:14:34.307Z,1.80
2022-08-23T20:17:06.632Z,1.60
2022-08-23T20:19:36.272Z,1.70
2022-08-23T20:22:23.227Z,1.50
2022-08-23T20:24:53.114Z,1.55
2022-08-23T20:27:25.337Z,1.60
2022-08-23T20:30:01.410Z,1.70
2022-08-23T20:32:31.336Z,1.60
2022-08-23T20:35:00.488Z,1.60
2022-08-23T20:37:29.732Z,1.65
2022-08-23T20:39:58.270Z,1.67
2022-08-23T20:42:28.558Z,1.60
2022-08-23T20:44:57.286Z,2.05
2022-08-23T20:47:26.077Z,1.70
2022-08-23T20:49:54.479Z,2.00
2022-08-23T20:52:22.877Z,2.00
2022-08-23T20:54:52.129Z,1.90
2022-08-23T20:57:20.532Z,2.15
2022-08-23T20:59:50.205Z,1.90
2022-08-23T21:02:18.701Z,2.03
2022-08-23T21:04:47.565Z,2.30
2022-08-23T21:07:16.740Z,2.28
2022-08-23T21:09:45.028Z,2.00
2022-08-23T21:12:13.669Z,2.30
2022-08-23T21:14:41.998Z,2.42
2022-08-23T21:17:11.785Z,2.28
2022-08-23T21:19:40.098Z,2.38
2022-08-23T21:22:08.914Z,2.30
2022-08-23T21:24:38.464Z,2.38
2022-08-23T21:27:09.531Z,2.50
2022-08-23T21:29:38.765Z,2.67
2022-08-23T21:32:08.080Z,2.67
2022-08-23T21:34:37.842Z,2.80
2022-08-23T21:37:06.656Z,2.95
2022-08-23T21:39:35.404Z,3.00
2022-08-23T21:42:14.675Z,3.00
2022-08-23T21:44:45.109Z,3.15
2022-08-23T21:47:14.876Z,2.85
2022-08-23T21:49:44.656Z,3.08
2022-08-23T21:52:13.257Z,2.90
2022-08-23T21:54:43.739Z,3.10
2022-08-23T21:57:12.690Z,3.42
2022-08-23T21:59:41.591Z,3.40
2022-08-23T22:02:10.852Z,3.03
2022-08-23T22:04:39.921Z,3.22
2022-08-23T22:07:09.640Z,2.88
2022-08-23T22:09:38.641Z,3.75
2022-08-23T22:12:08.839Z,3.30
2022-08-23T22:14:37.220Z,3.60
2022-08-23T22:17:06.439Z,3.40
2022-08-23T22:19:34.772Z,3.28
2022-08-23T22:22:03.173Z,3.15
2022-08-23T22:24:33.042Z,3.42
2022-08-23T22:27:01.908Z,3.45
2022-08-23T22:29:30.745Z,3.45
2022-08-23T22:31:59.168Z,3.50
2022-08-23T22:34:27.572Z,3.38
2022-08-23T22:36:56.762Z,3.30
2022-08-23T22:39:25.496Z,3.38
2022-08-23T22:41:55.406Z,3.47
2022-08-23T22:44:24.121Z,3.30
2022-08-23T22:46:52.757Z,2.97
2022-08-23T22:49:21.822Z,3.55
2022-08-23T22:51:55.425Z,3.60
2022-08-23T22:54:25.113Z,3.50
2022-08-23T22:56:55.488Z,3.47
2022-08-23T22:59:27.575Z,3.50
2022-08-23T23:01:58.626Z,3.30
2022-08-23T23:04:29.416Z,3.65
2022-08-23T23:06:59.242Z,3.40
2022-08-23T23:09:28.525Z,3.88
2022-08-23T23:11:58.365Z,3.55
2022-08-23T23:14:27.247Z,3.50
2022-08-23T23:16:55.718Z,3.38
2022-08-23T23:19:41.640Z,3.10
2022-08-23T23:22:11.320Z,3.50
2022-08-23T23:24:41.300Z,3.78
2022-08-23T23:27:11.141Z,3.90
2022-08-23T23:29:39.758Z,4.10
2022-08-23T23:32:08.402Z,3.90
2022-08-23T23:34:37.972Z,4.13
2022-08-23T23:37:07.219Z,3.75
2022-08-23T23:39:35.662Z,3.95
2022-08-23T23:42:04.384Z,3.42
2022-08-23T23:44:34.276Z,3.90
2022-08-23T23:47:03.731Z,3.90
2022-08-23T23:49:33.775Z,3.80
2022-08-23T23:52:04.961Z,3.72
2022-08-23T23:54:38.593Z,3.72
2022-08-23T23:57:08.011Z,3.80
2022-08-23T23:59:38.664Z,4.18
